createdAt,value
2023-04-21T00:00:16.988Z,99511.88
2023-04-21T00:02:46.873Z,99505.44
2023-04-21T00:05:15.868Z,99498.66
2023-04-21T00:07:43.738Z,99492.81
2023-04-21T00:10:12.830Z,99494.53
2023-04-21T00:12:41.505Z,99498.84
2023-04-21T00:15:10.299Z,99495.78
2023-04-21T00:17:39.465Z,99492.97
2023-04-21T00:20:10.851Z,99494.34
2023-04-21T00:22:38.754Z,99487.41
2023-04-21T00:25:08.264Z,99489.50
2023-04-21T00:27:37.030Z,99491.88
2023-04-21T00:30:07.155Z,99487.41
2023-04-21T00:32:35.077Z,99490.75
2023-04-21T00:35:02.968Z,99486.59
2023-04-21T00:37:31.612Z,99490.31
2023-04-21T00:40:00.322Z,99483.69
2023-04-21T00:42:29.081Z,99483.34
2023-04-21T00:44:57.739Z,99482.78
2023-04-21T00:47:25.739Z,99482.91
2023-04-21T00:49:53.622Z,99486.44
2023-04-21T00:52:21.614Z,99482.03
2023-04-21T00:54:49.585Z,99483.59
2023-04-21T00:57:17.952Z,99487.41
2023-04-21T00:59:45.804Z,99485.34
2023-04-21T01:02:17.321Z,99482.84
2023-04-21T01:04:45.946Z,99487.63
2023-04-21T01:07:14.798Z,99485.78
2023-04-21T01:09:43.523Z,99489.25
2023-04-21T01:12:13.498Z,99488.19
2023-04-21T01:14:42.233Z,99486.03
2023-04-21T01:17:10.804Z,99487.53
2023-04-21T01:19:43.932Z,99488.41
2023-04-21T01:22:13.762Z,99478.59
2023-04-21T01:24:49.752Z,99477.56
2023-04-21T01:27:21.131Z,99475.81
2023-04-21T01:29:52.916Z,99479.53
2023-04-21T01:32:26.863Z,99476.00
2023-04-21T01:34:58.297Z,99471.69
2023-04-21T01:37:33.494Z,99474.47
2023-04-21T01:40:07.617Z,99471.72
2023-04-21T01:42:43.694Z,99470.88
2023-04-21T01:45:12.479Z,99472.84
2023-04-21T01:47:40.579Z,99464.84
2023-04-21T01:50:10.267Z,99473.25
2023-04-21T01:52:39.000Z,99479.31
2023-04-21T01:55:07.692Z,99476.25
2023-04-21T01:57:36.430Z,99475.88
2023-04-21T02:00:06.354Z,99475.16
2023-04-21T02:02:35.127Z,99475.94
2023-04-21T02:05:04.244Z,99472.66
2023-04-21T02:07:33.001Z,99472.75
2023-04-21T02:10:01.979Z,99481.38
2023-04-21T02:12:30.699Z,99474.94
2023-04-21T02:14:58.601Z,99475.56
2023-04-21T02:17:26.458Z,99476.72
2023-04-21T02:19:55.155Z,99474.47
2023-04-21T02:22:23.362Z,99477.84
2023-04-21T02:24:51.821Z,99478.03
2023-04-21T02:27:19.599Z,99475.00
2023-04-21T02:29:48.223Z,99484.34
2023-04-21T02:32:25.649Z,99487.94
2023-04-21T02:34:55.121Z,99491.06
2023-04-21T02:37:24.314Z,99497.13
2023-04-21T02:39:52.281Z,99493.84
2023-04-21T02:42:20.248Z,99496.25
2023-04-21T02:44:49.091Z,99492.66
2023-04-21T02:47:17.837Z,99495.16
2023-04-21T02:49:46.612Z,99499.22
2023-04-21T02:52:15.313Z,99510.41
2023-04-21T02:54:43.963Z,99506.44
2023-04-21T02:57:11.769Z,99509.72
2023-04-21T02:59:39.573Z,99509.72
2023-04-21T03:02:07.415Z,99517.09
2023-04-21T03:04:36.493Z,99501.00
2023-04-21T03:07:04.380Z,99510.34
2023-04-21T03:09:32.288Z,99506.63
2023-04-21T03:12:00.108Z,99503.75
2023-04-21T03:14:27.949Z,99511.78
2023-04-21T03:16:56.741Z,99508.66
2023-04-21T03:19:24.693Z,99524.75
2023-04-21T03:21:53.331Z,99521.63
2023-04-21T03:24:21.707Z,99522.44
2023-04-21T03:26:51.068Z,99520.41
2023-04-21T03:29:20.054Z,99521.91
2023-04-21T03:31:49.004Z,99522.94
2023-04-21T03:34:16.986Z,99528.22
2023-04-21T03:36:44.771Z,99524.56
2023-04-21T03:39:19.860Z,99530.09
2023-04-21T03:41:48.768Z,99525.44
2023-04-21T03:44:16.616Z,99526.41
2023-04-21T03:46:45.331Z,99524.41
2023-04-21T03:49:13.210Z,99525.78
2023-04-21T03:51:41.954Z,99529.75
2023-04-21T03:54:09.734Z,99530.25
2023-04-21T03:56:37.730Z,99532.78
2023-04-21T03:59:06.415Z,99534.41
2023-04-21T04:01:37.232Z,99532.38
2023-04-21T04:04:05.482Z,99530.31
2023-04-21T04:06:33.568Z,99522.44
2023-04-21T04:09:04.755Z,99535.72
2023-04-21T04:11:33.313Z,99534.25
2023-04-21T04:14:01.167Z,99531.22
2023-04-21T04:16:30.129Z,99539.59
2023-04-21T04:18:58.852Z,99541.16
2023-04-21T04:21:28.502Z,99537.53
2023-04-21T04:23:57.089Z,99539.63
2023-04-21T04:26:25.901Z,99540.63
2023-04-21T04:28:56.699Z,99542.41
2023-04-21T04:31:25.707Z,99553.50
2023-04-21T04:33:55.788Z,99550.84
2023-04-21T04:36:28.748Z,99554.03
2023-04-21T04:38:58.671Z,99558.16
2023-04-21T04:41:31.060Z,99574.44
2023-04-21T04:44:00.982Z,99570.75
2023-04-21T04:46:29.907Z,99574.78
2023-04-21T04:48:58.614Z,99563.69
2023-04-21T04:51:27.695Z,99573.91
2023-04-21T04:53:56.389Z,99569.63
2023-04-21T04:56:25.933Z,99576.75
2023-04-21T04:58:54.647Z,99570.72
2023-04-21T05:01:24.587Z,99573.66
2023-04-21T05:03:54.215Z,99578.41
2023-04-21T05:06:24.233Z,99572.56
2023-04-21T05:08:52.096Z,99574.66
2023-04-21T05:11:20.885Z,99587.88
2023-04-21T05:13:49.591Z,99579.19
2023-04-21T05:16:19.189Z,99583.25
2023-04-21T05:18:51.154Z,99581.25
2023-04-21T05:21:27.963Z,99583.56
2023-04-21T05:23:59.442Z,99580.31
2023-04-21T05:26:30.149Z,99570.41
2023-04-21T05:28:59.271Z,99573.34
2023-04-21T05:31:28.940Z,99573.16
2023-04-21T05:33:58.435Z,99571.88
2023-04-21T05:36:28.187Z,99566.13
2023-04-21T05:38:55.977Z,99566.03
2023-04-21T05:41:24.871Z,99581.78
2023-04-21T05:43:52.718Z,99583.81
2023-04-21T05:46:21.752Z,99577.38
2023-04-21T05:48:50.416Z,99585.94
2023-04-21T05:51:19.071Z,99584.63
2023-04-21T05:53:47.829Z,99584.06
2023-04-21T05:56:16.445Z,99575.09
2023-04-21T05:58:44.280Z,99578.66
2023-04-21T06:01:13.386Z,99579.56
2023-04-21T06:03:41.304Z,99577.16
2023-04-21T06:06:11.711Z,99573.59
2023-04-21T06:08:40.398Z,99582.28
2023-04-21T06:11:08.341Z,99581.00
2023-04-21T06:13:38.230Z,99575.91
2023-04-21T06:16:06.992Z,99575.00
2023-04-21T06:18:36.726Z,99576.94
2023-04-21T06:21:05.824Z,99576.19
2023-04-21T06:23:33.725Z,99572.38
2023-04-21T06:26:07.152Z,99574.34
2023-04-21T06:28:37.093Z,99579.00
2023-04-21T06:31:08.680Z,99579.94
2023-04-21T06:33:37.092Z,99579.13
2023-04-21T06:36:06.671Z,99573.09
2023-04-21T06:38:36.352Z,99587.69
2023-04-21T06:41:05.877Z,99592.97
2023-04-21T06:43:34.525Z,99601.03
2023-04-21T06:46:04.179Z,99605.91
2023-04-21T06:48:32.296Z,99595.41
2023-04-21T06:51:02.857Z,99586.69
2023-04-21T06:53:31.838Z,99595.22
2023-04-21T06:56:00.440Z,99600.91
2023-04-21T06:58:28.936Z,99593.38
2023-04-21T07:00:58.588Z,99601.88
2023-04-21T07:03:27.247Z,99606.88
2023-04-21T07:05:55.826Z,99607.53
2023-04-21T07:08:25.886Z,99613.44
2023-04-21T07:10:54.328Z,99609.50
2023-04-21T07:13:22.773Z,99621.88
2023-04-21T07:15:51.472Z,99617.81
2023-04-21T07:18:19.949Z,99611.00
2023-04-21T07:20:49.550Z,99605.19
2023-04-21T07:23:19.575Z,99605.81
2023-04-21T07:25:49.268Z,99615.06
2023-04-21T07:28:18.865Z,99606.78
2023-04-21T07:30:47.413Z,99602.22
2023-04-21T07:33:16.428Z,99581.09
2023-04-21T07:35:46.006Z,99578.13
2023-04-21T07:38:15.648Z,99571.53
2023-04-21T07:40:43.519Z,99586.09
2023-04-21T07:43:11.438Z,99580.16
2023-04-21T07:45:40.164Z,99582.34
2023-04-21T07:48:09.739Z,99580.38
2023-04-21T07:50:37.772Z,99573.50
2023-04-21T07:53:06.562Z,99582.53
2023-04-21T07:55:37.433Z,99578.84
2023-04-21T07:58:06.988Z,99570.06
2023-04-21T08:00:36.856Z,99575.81
2023-04-21T08:03:04.753Z,99571.13
2023-04-21T08:05:35.857Z,99569.50
2023-04-21T08:08:06.029Z,99571.94
2023-04-21T08:10:34.380Z,99568.88
2023-04-21T08:13:06.618Z,99568.59
2023-04-21T08:15:35.536Z,99561.56
2023-04-21T08:18:03.331Z,99567.41
2023-04-21T08:20:32.951Z,99557.56
2023-04-21T08:23:01.539Z,99563.06
2023-04-21T08:25:29.601Z,99565.63
2023-04-21T08:28:02.043Z,99559.47
2023-04-21T08:30:30.222Z,99565.75
2023-04-21T08:32:59.896Z,99567.28
2023-04-21T08:35:27.668Z,99559.38
2023-04-21T08:37:57.677Z,99556.69
2023-04-21T08:40:36.508Z,99562.19
2023-04-21T08:43:10.069Z,99567.16
2023-04-21T08:45:37.956Z,99560.47
2023-04-21T08:48:07.247Z,99550.28
2023-04-21T08:50:36.446Z,99558.47
2023-04-21T08:53:04.272Z,99566.13
2023-04-21T08:55:33.854Z,99555.41
2023-04-21T08:58:07.100Z,99557.88
2023-04-21T09:00:41.660Z,99558.91
2023-04-21T09:03:23.187Z,99560.81
2023-04-21T09:06:07.014Z,99546.38
2023-04-21T09:08:43.130Z,99543.69
2023-04-21T09:11:15.943Z,99534.78
2023-04-21T09:13:45.573Z,99549.88
2023-04-21T09:16:22.395Z,99546.28
2023-04-21T09:18:51.902Z,99548.75
2023-04-21T09:21:21.258Z,99540.44
2023-04-21T09:23:52.664Z,99543.53
2023-04-21T09:26:23.470Z,99540.50
2023-04-21T09:28:53.840Z,99539.50
2023-04-21T09:31:29.435Z,99533.22
2023-04-21T09:34:00.779Z,99531.47
2023-04-21T09:36:32.351Z,99540.22
2023-04-21T09:41:35.507Z,99527.41
2023-04-21T09:44:06.890Z,99525.13
2023-04-21T09:46:37.875Z,99518.34
2023-04-21T09:49:07.194Z,99512.97
2023-04-21T09:54:33.025Z,99520.59
2023-04-21T09:57:04.855Z,99512.97
2023-04-21T09:59:47.618Z,99513.09
2023-04-21T10:02:20.652Z,99513.47
2023-04-21T10:04:49.507Z,99505.97
2023-04-21T10:07:18.389Z,99498.44
2023-04-21T10:09:56.880Z,99498.38
2023-04-21T10:12:27.701Z,99495.97
2023-04-21T10:14:58.522Z,99493.56
2023-04-21T10:17:27.861Z,99492.25
2023-04-21T10:19:59.673Z,99484.66
2023-04-21T10:22:33.781Z,99493.75
2023-04-21T10:25:04.971Z,99507.25
2023-04-21T10:27:42.192Z,99504.13
2023-04-21T10:30:23.261Z,99494.00
2023-04-21T10:33:05.965Z,99498.50
2023-04-21T10:36:03.020Z,99485.53
2023-04-21T10:38:43.997Z,99488.88
2023-04-21T10:41:30.861Z,99493.75
2023-04-21T10:44:12.344Z,99491.13
2023-04-21T10:47:01.243Z,99489.09
2023-04-21T10:49:31.599Z,99489.34
2023-04-21T10:52:00.518Z,99477.94
2023-04-21T10:54:50.229Z,99482.28
2023-04-21T10:57:20.864Z,99482.00
2023-04-21T10:59:50.004Z,99472.31
2023-04-21T11:02:20.127Z,99467.03
2023-04-21T11:04:54.530Z,99472.22
2023-04-21T11:07:25.464Z,99464.03
2023-04-21T11:10:07.947Z,99466.78
2023-04-21T11:12:41.874Z,99476.38
2023-04-21T11:15:14.648Z,99469.25
2023-04-21T11:17:47.443Z,99472.41
2023-04-21T11:20:15.275Z,99458.84
2023-04-21T11:22:43.782Z,99458.72
2023-04-21T11:25:19.117Z,99462.19
2023-04-21T11:27:56.787Z,99459.84
2023-04-21T11:30:36.248Z,99454.63
2023-04-21T11:33:05.077Z,99451.22
2023-04-21T11:35:33.744Z,99461.09
2023-04-21T11:38:08.852Z,99456.13
2023-04-21T11:40:48.844Z,99443.84
2023-04-21T11:43:17.769Z,99452.72
2023-04-21T11:45:51.166Z,99454.25
2023-04-21T11:48:20.068Z,99442.06
2023-04-21T11:50:50.999Z,99448.72
2023-04-21T11:53:20.294Z,99432.94
2023-04-21T11:55:48.969Z,99438.69
2023-04-21T11:58:18.175Z,99441.28
2023-04-21T12:00:46.996Z,99445.38
2023-04-21T12:03:16.480Z,99436.13
2023-04-21T12:05:44.397Z,99429.44
2023-04-21T12:08:16.725Z,99434.09
2023-04-21T12:10:47.355Z,99430.41
2023-04-21T12:13:23.929Z,99419.69
2023-04-21T12:15:52.591Z,99422.81
2023-04-21T12:18:21.598Z,99418.03
2023-04-21T12:20:54.989Z,99416.56
2023-04-21T12:23:23.690Z,99416.81
2023-04-21T12:25:53.342Z,99415.41
2023-04-21T12:28:21.309Z,99419.09
2023-04-21T12:30:50.002Z,99420.97
2023-04-21T12:33:17.959Z,99414.72
2023-04-21T12:35:46.676Z,99422.09
2023-04-21T12:38:14.552Z,99419.28
2023-04-21T12:40:42.429Z,99421.31
2023-04-21T12:43:11.083Z,99409.59
2023-04-21T12:45:39.777Z,99409.97
2023-04-21T12:48:08.492Z,99406.19
2023-04-21T12:50:37.145Z,99407.81
2023-04-21T12:53:05.822Z,99407.09
2023-04-21T12:55:36.906Z,99409.81
2023-04-21T12:58:05.552Z,99404.88
2023-04-21T13:00:36.055Z,99395.84
2023-04-21T13:03:05.069Z,99404.69
2023-04-21T13:05:34.208Z,99401.66
2023-04-21T13:08:02.876Z,99398.72
2023-04-21T13:10:31.631Z,99400.63
2023-04-21T13:13:00.295Z,99400.19
2023-04-21T13:15:28.081Z,99396.44
2023-04-21T13:17:55.900Z,99401.44
2023-04-21T13:20:24.862Z,99397.94
2023-04-21T13:22:53.602Z,99395.81
2023-04-21T13:25:22.349Z,99395.00
2023-04-21T13:27:52.874Z,99392.25
2023-04-21T13:30:22.215Z,99387.31
2023-04-21T13:32:51.031Z,99388.00
2023-04-21T13:35:20.054Z,99383.63
2023-04-21T13:37:50.372Z,99386.22
2023-04-21T13:40:19.484Z,99389.56
2023-04-21T13:42:48.183Z,99378.75
2023-04-21T13:45:17.193Z,99377.72
2023-04-21T13:47:46.759Z,99379.28
2023-04-21T13:50:15.554Z,99370.44
2023-04-21T13:52:44.679Z,99365.88
2023-04-21T13:55:13.420Z,99372.53
2023-04-21T13:57:42.435Z,99372.22
2023-04-21T14:00:12.317Z,99364.69
2023-04-21T14:02:42.181Z,99359.34
2023-04-21T14:05:10.397Z,99360.84
2023-04-21T14:07:39.292Z,99358.00
2023-04-21T14:10:08.870Z,99356.34
2023-04-21T14:12:37.552Z,99353.81
2023-04-21T14:15:09.648Z,99353.25
2023-04-21T14:17:38.369Z,99354.31
2023-04-21T14:20:09.693Z,99352.31
2023-04-21T14:22:39.816Z,99354.81
2023-04-21T14:25:08.305Z,99350.72
2023-04-21T14:27:37.172Z,99349.16
2023-04-21T14:30:07.683Z,99349.13
2023-04-21T14:32:36.384Z,99343.78
2023-04-21T14:35:05.684Z,99345.75
2023-04-21T14:37:35.250Z,99350.13
2023-04-21T14:40:04.381Z,99350.56
2023-04-21T14:42:33.346Z,99342.06
2023-04-21T14:45:01.219Z,99344.78
2023-04-21T14:47:29.821Z,99344.63
2023-04-21T14:49:58.520Z,99335.63
2023-04-21T14:52:27.672Z,99338.84
2023-04-21T14:54:56.384Z,99331.00
2023-04-21T14:57:24.991Z,99338.69
2023-04-21T14:59:54.394Z,99331.16
2023-04-21T15:02:23.256Z,99333.03
2023-04-21T15:04:52.161Z,99331.84
2023-04-21T15:07:24.316Z,99328.78
2023-04-21T15:09:55.647Z,99323.66
2023-04-21T15:12:24.372Z,99326.03
2023-04-21T15:14:53.427Z,99321.28
2023-04-21T15:17:22.030Z,99319.91
2023-04-21T15:19:50.855Z,99328.28
2023-04-21T15:22:19.682Z,99315.47
2023-04-21T15:24:48.691Z,99322.47
2023-04-21T15:27:17.766Z,99323.28
2023-04-21T15:29:45.545Z,99317.69
2023-04-21T15:32:15.186Z,99314.25
2023-04-21T15:34:43.813Z,99321.09
2023-04-21T15:37:12.578Z,99319.50
2023-04-21T15:39:41.623Z,99318.34
2023-04-21T15:42:10.381Z,99324.88
2023-04-21T15:44:39.858Z,99313.88
2023-04-21T15:47:08.590Z,99314.78
2023-04-21T15:49:37.636Z,99304.44
2023-04-21T15:52:07.292Z,99309.50
2023-04-21T15:54:36.623Z,99312.88
2023-04-21T15:57:05.905Z,99302.66
2023-04-21T15:59:33.718Z,99303.97
2023-04-21T16:02:02.747Z,99306.31
2023-04-21T16:04:30.904Z,99293.34
2023-04-21T16:06:59.681Z,99307.19
2023-04-21T16:09:28.371Z,99301.59
2023-04-21T16:11:57.611Z,99294.91
2023-04-21T16:14:26.274Z,99297.34
2023-04-21T16:16:55.031Z,99291.69
2023-04-21T16:19:23.966Z,99290.63
2023-04-21T16:21:53.472Z,99292.41
2023-04-21T16:24:22.251Z,99289.66
2023-04-21T16:26:51.023Z,99287.31
2023-04-21T16:29:20.536Z,99286.19
2023-04-21T16:31:49.278Z,99282.56
2023-04-21T16:34:18.096Z,99282.66
2023-04-21T16:36:47.474Z,99291.47
2023-04-21T16:39:15.310Z,99294.09
2023-04-21T16:41:44.005Z,99287.78
2023-04-21T16:44:12.694Z,99285.13
2023-04-21T16:46:41.607Z,99293.06
2023-04-21T16:49:12.456Z,99289.69
2023-04-21T16:51:44.781Z,99283.69
2023-04-21T16:54:14.101Z,99293.75
2023-04-21T16:56:42.865Z,99290.19
2023-04-21T16:59:12.444Z,99284.69
2023-04-21T17:01:41.296Z,99287.19
2023-04-21T17:04:14.154Z,99289.66
2023-04-21T17:06:43.358Z,99280.22
2023-04-21T17:09:12.089Z,99284.81
2023-04-21T17:11:41.637Z,99276.84
2023-04-21T17:14:11.098Z,99284.34
2023-04-21T17:16:40.968Z,99280.06
2023-04-21T17:19:10.451Z,99278.06
2023-04-21T17:21:39.121Z,99288.34
2023-04-21T17:24:08.684Z,99281.63
2023-04-21T17:26:37.720Z,99280.19
2023-04-21T17:29:08.942Z,99287.16
2023-04-21T17:31:38.713Z,99281.44
2023-04-21T17:34:08.299Z,99279.00
2023-04-21T17:36:37.072Z,99281.25
2023-04-21T17:39:05.949Z,99286.34
2023-04-21T17:41:35.537Z,99286.66
2023-04-21T17:44:05.329Z,99284.06
2023-04-21T17:46:34.218Z,99285.34
2023-04-21T17:49:03.748Z,99289.59
2023-04-21T17:51:32.854Z,99286.84
2023-04-21T17:54:01.554Z,99285.31
2023-04-21T17:56:31.247Z,99288.97
2023-04-21T17:59:01.280Z,99295.41
2023-04-21T18:01:31.141Z,99297.28
2023-04-21T18:04:01.598Z,99291.34
2023-04-21T18:06:31.992Z,99284.63
2023-04-21T18:09:01.652Z,99289.50
2023-04-21T18:11:31.470Z,99291.34
2023-04-21T18:14:02.366Z,99295.97
2023-04-21T18:16:30.302Z,99299.06
2023-04-21T18:18:58.193Z,99302.88
2023-04-21T18:21:28.467Z,99306.72
2023-04-21T18:23:58.072Z,99313.69
2023-04-21T18:26:29.127Z,99308.31
2023-04-21T18:28:58.449Z,99313.59
2023-04-21T18:31:29.054Z,99311.31
2023-04-21T18:34:00.511Z,99316.81
2023-04-21T18:36:32.480Z,99312.25
2023-04-21T18:39:01.258Z,99310.81
2023-04-21T18:41:30.841Z,99309.19
2023-04-21T18:44:00.435Z,99310.81
2023-04-21T18:46:37.900Z,99313.47
2023-04-21T18:49:07.628Z,99326.31
2023-04-21T18:51:37.238Z,99317.66
2023-04-21T18:54:12.626Z,99318.06
2023-04-21T18:56:41.501Z,99327.97
2023-04-21T18:59:10.359Z,99324.41
2023-04-21T19:01:40.566Z,99327.50
2023-04-21T19:04:10.827Z,99326.50
2023-04-21T19:06:39.885Z,99324.19
2023-04-21T19:09:08.631Z,99328.97
2023-04-21T19:11:38.354Z,99334.13
2023-04-21T19:14:07.142Z,99331.59
2023-04-21T19:16:36.898Z,99335.84
2023-04-21T19:19:06.138Z,99341.13
2023-04-21T19:21:35.802Z,99330.84
2023-04-21T19:24:05.926Z,99334.81
2023-04-21T19:26:35.832Z,99343.06
2023-04-21T19:29:05.123Z,99339.69
2023-04-21T19:31:33.944Z,99344.88
2023-04-21T19:34:02.737Z,99336.75
2023-04-21T19:36:31.693Z,99339.44
2023-04-21T19:39:00.580Z,99338.88
2023-04-21T19:41:30.151Z,99335.75
2023-04-21T19:43:58.922Z,99333.88
2023-04-21T19:46:28.596Z,99338.19
2023-04-21T19:48:57.387Z,99342.50
2023-04-21T19:51:28.076Z,99342.97
2023-04-21T19:54:10.163Z,99347.44
2023-04-21T19:56:41.142Z,99348.47
2023-04-21T19:59:10.760Z,99344.22
2023-04-21T20:01:39.922Z,99345.47
2023-04-21T20:04:11.885Z,99344.06
2023-04-21T20:06:41.844Z,99339.59
2023-04-21T20:09:10.693Z,99343.16
2023-04-21T20:11:39.463Z,99337.66
2023-04-21T20:14:08.291Z,99342.13
2023-04-21T20:16:38.303Z,99341.31
2023-04-21T20:19:07.015Z,99341.63
2023-04-21T20:21:36.628Z,99347.81
2023-04-21T20:24:05.740Z,99342.06
2023-04-21T20:26:35.645Z,99343.53
2023-04-21T20:29:05.084Z,99337.09
2023-04-21T20:31:34.818Z,99339.09
2023-04-21T20:34:03.642Z,99342.13
2023-04-21T20:36:33.749Z,99341.25
2023-04-21T20:39:06.615Z,99337.50
2023-04-21T20:41:35.386Z,99361.63
2023-04-21T20:44:05.655Z,99360.22
2023-04-21T20:46:35.353Z,99351.00
2023-04-21T20:49:05.270Z,99353.13
2023-04-21T20:51:35.126Z,99352.50
2023-04-21T20:54:03.964Z,99354.84
2023-04-21T20:56:33.587Z,99352.00
2023-04-21T20:59:03.197Z,99348.88
2023-04-21T21:01:37.009Z,99354.94
2023-04-21T21:04:06.077Z,99346.78
2023-04-21T21:06:35.213Z,99345.31
2023-04-21T21:09:05.181Z,99341.81
2023-04-21T21:11:33.940Z,99346.75
2023-04-21T21:14:03.593Z,99344.09
2023-04-21T21:16:33.265Z,99353.16
2023-04-21T21:19:02.894Z,99348.06
2023-04-21T21:21:31.838Z,99352.44
2023-04-21T21:24:01.483Z,99353.94
2023-04-21T21:26:30.829Z,99345.34
2023-04-21T21:29:00.459Z,99356.13
2023-04-21T21:31:30.145Z,99354.84
2023-04-21T21:33:59.028Z,99360.38
2023-04-21T21:36:28.628Z,99357.00
2023-04-21T21:38:58.246Z,99348.19
2023-04-21T21:41:27.935Z,99353.78
2023-04-21T21:43:57.463Z,99356.69
2023-04-21T21:46:27.125Z,99352.28
2023-04-21T21:48:56.758Z,99351.22
2023-04-21T21:51:28.114Z,99353.78
2023-04-21T21:53:57.733Z,99356.38
2023-04-21T21:56:27.716Z,99360.88
2023-04-21T21:58:57.327Z,99353.75
2023-04-21T22:01:26.229Z,99354.84
2023-04-21T22:03:56.714Z,99362.38
2023-04-21T22:06:28.717Z,99357.47
2023-04-21T22:08:57.485Z,99363.91
2023-04-21T22:11:26.290Z,99368.44
2023-04-21T22:13:55.101Z,99368.09
2023-04-21T22:16:24.692Z,99366.28
2023-04-21T22:18:54.965Z,99372.97
2023-04-21T22:21:28.510Z,99393.19
2023-04-21T22:23:57.369Z,99378.66
2023-04-21T22:26:26.864Z,99372.19
2023-04-21T22:28:56.482Z,99372.88
2023-04-21T22:31:26.118Z,99375.78
2023-04-21T22:33:54.864Z,99371.84
2023-04-21T22:36:24.881Z,99379.41
2023-04-21T22:38:54.440Z,99370.09
2023-04-21T22:41:23.288Z,99369.06
2023-04-21T22:43:52.079Z,99361.63
2023-04-21T22:46:21.160Z,99369.69
2023-04-21T22:48:51.529Z,99372.94
2023-04-21T22:51:21.712Z,99379.19
2023-04-21T22:53:51.227Z,99375.09
2023-04-21T22:56:19.996Z,99371.44
2023-04-21T22:58:48.864Z,99373.63
2023-04-21T23:01:17.713Z,99380.81
2023-04-21T23:03:46.610Z,99375.31
2023-04-21T23:06:15.456Z,99384.47
2023-04-21T23:08:43.298Z,99382.84
2023-04-21T23:11:12.133Z,99379.72
2023-04-21T23:13:42.172Z,99379.84
2023-04-21T23:16:10.998Z,99385.22
2023-04-21T23:18:40.773Z,99380.06
2023-04-21T23:21:09.533Z,99384.03
2023-04-21T23:23:38.177Z,99385.84
2023-04-21T23:26:06.984Z,99381.97
2023-04-21T23:28:36.542Z,99387.44
2023-04-21T23:31:06.327Z,99387.97
2023-04-21T23:33:35.302Z,99382.84
2023-04-21T23:36:05.093Z,99390.50
2023-04-21T23:38:34.620Z,99382.16
2023-04-21T23:41:04.206Z,99376.84
2023-04-21T23:43:34.746Z,99385.00
2023-04-21T23:46:04.792Z,99381.00
2023-04-21T23:48:35.079Z,99379.75
2023-04-21T23:51:04.074Z,99374.47
2023-04-21T23:53:33.085Z,99378.75
2023-04-21T23:56:02.678Z,99375.53
2023-04-21T23:58:31.452Z,99372.72
